M I D A S
Marine Information and Data Acquisition System
Tripno 862 of the Zeeleeuw from 2005-03-14 08:39:53 to 2005-03-14 13:46:52
Back to CruiseResearch ActivitiesStationsMapUnderway DataData graphs

EquipmentUnitsComment
TimeDGPSUTC
LatitudeDGPSDM.mWGS84
LongitudeDGPSDM.mWGS84
TemperatureSBE03/SBE38deg celciusITS90
ConductivitySBE21S/mITS90
SalinitySBE21 Practical Salinity Units
ChlorophylAChelsea fluorimeterg/lCalibrated in Aceton
Missing or incorrect values are displayed as -999
Sea surface data collected by the RV Zeeleeuw from 2005-03-14 08:40:48 to 2005-03-14 13:56:38
Time Latitude Longitude Temperature Conductivity Salinity ChlorophylA
2005-03-14 08:41:54 51°13.639 2°55.976 13.5758 0.082494 0.410936 -0.882377
2005-03-14 08:42:54 51°13.653 2°55.94 13.4999 0.082598 0.411518 -0.882377
2005-03-14 08:43:54 51°13.694 2°55.845 13.4644 0.082598 0.41153 -0.882377
2005-03-14 08:44:53 51°13.725 2°55.74 4.6614 2.440006 22.71233 5.45499
2005-03-14 08:45:54 51°13.73 2°55.727 4.3799 2.292642 23.090707 3.735811
2005-03-14 08:46:53 51°13.748 2°55.711 4.3341 2.266998 22.979656 3.735811
2005-03-14 08:47:54 51°13.834 2°55.636 4.4821 2.17431 21.976105 4.645965
2005-03-14 08:48:54 51°13.954 2°55.545 4.225 2.087213 21.012631 4.409999
2005-03-14 08:49:54 51°14.089 2°55.443 4.1903 2.39703 24.585509 4.174033
2005-03-14 08:50:54 51°14.233 2°55.302 4.1761 2.373902 24.347773 4.174033
2005-03-14 08:51:53 51°14.358 2°55.082 4.1416 2.423841 24.936573 3.365007
2005-03-14 08:52:53 51°14.514 2°54.876 4.0062 2.527838 26.152339 3.331298
2005-03-14 08:53:53 51°14.677 2°54.767 3.9442 2.668994 27.868051 3.600973
2005-03-14 08:54:53 51°14.757 2°54.734 3.8905 2.734117 28.701733 2.825657
2005-03-14 08:55:53 51°14.801 2°54.685 3.8837 2.737589 28.763674 2.421144
2005-03-14 08:56:53 51°14.83 2°54.637 3.8561 2.743481 28.851394 2.185178
2005-03-14 08:57:53 51°14.852 2°54.592 3.843 2.741798 28.850678 1.949212
2005-03-14 08:58:53 51°14.939 2°54.522 3.8442 2.719598 28.610681 1.949212
2005-03-14 08:59:53 51°15.108 2°54.404 3.8326 2.701503 28.393506 2.6234
2005-03-14 09:00:53 51°15.289 2°54.254 3.8272 2.752845 28.986586 3.365007
2005-03-14 09:01:53 51°15.479 2°54.099 3.8367 2.756213 29.051659 3.938067
2005-03-14 09:02:54 51°15.679 2°53.95 3.8126 2.760211 29.097288 2.286306
2005-03-14 09:03:53 51°15.876 2°53.786 3.8202 2.764209 29.160355 2.050341
2005-03-14 09:04:53 51°16.068 2°53.602 3.8244 2.750005 28.995364 2.016631
2005-03-14 09:05:53 51°16.258 2°53.421 3.8319 2.749794 28.977951 2.421144
2005-03-14 09:06:53 51°16.448 2°53.24 3.8148 2.754424 29.032473 2.151469
2005-03-14 09:07:53 51°16.637 2°53.057 3.8172 2.748111 28.971011 1.982922
2005-03-14 09:08:53 51°16.828 2°52.892 3.806 2.743692 28.919715 2.488563
2005-03-14 09:09:54 51°17.014 2°52.742 3.8053 2.740641 28.896872 2.960494
2005-03-14 09:10:54 51°17.216 2°52.643 3.8255 2.787253 29.450689 3.702101
2005-03-14 09:11:53 51°17.42 2°52.582 3.8023 2.783991 29.399117 2.589691
2005-03-14 09:12:53 51°17.628 2°52.512 3.7809 2.786937 29.45022 1.915503
2005-03-14 09:13:54 51°17.836 2°52.439 3.795 2.787253 29.4563 1.713247
2005-03-14 09:14:53 51°18.042 2°52.41 3.7963 2.805668 29.664362 2.353725
2005-03-14 09:15:54 51°18.249 2°52.465 3.8043 2.81135 29.728966 2.6234
2005-03-14 09:16:53 51°18.427 2°52.611 3.8034 2.807246 29.67791 2.522272
2005-03-14 09:17:53 51°18.582 2°52.816 3.8006 2.817138 29.80373 2.690819
2005-03-14 09:18:53 51°18.728 2°53.046 3.7991 2.817769 29.807847 2.960494
2005-03-14 09:19:54 51°18.824 2°53.328 3.7891 2.820084 29.829972 3.129042
2005-03-14 09:20:54 51°18.911 2°53.613 3.7742 2.799459 29.597669 2.454853
2005-03-14 09:21:53 51°19.003 2°53.889 3.7815 2.791041 29.512463 2.117759
2005-03-14 09:22:54 51°19.099 2°54.168 3.7758 2.792935 29.537749 1.982922
2005-03-14 09:23:53 51°19.197 2°54.443 3.7878 2.795882 29.572086 2.65711
2005-03-14 09:24:53 51°19.298 2°54.721 3.7871 2.810929 29.743485 2.454853
2005-03-14 09:25:54 51°19.402 2°55.003 3.7812 2.803563 29.649522 2.117759
2005-03-14 09:26:53 51°19.501 2°55.276 3.895 2.778414 29.338232 2.050341
2005-03-14 09:27:53 51°19.6 2°55.547 3.9636 2.770837 29.15022 2.117759
2005-03-14 09:28:54 51°19.7 2°55.817 3.9695 2.762946 29.028106 2.08405
2005-03-14 09:29:53 51°19.797 2°56.082 3.9886 2.761367 29.008272 2.117759
2005-03-14 09:30:53 51°19.94 2°56.282 4.0081 2.765576 29.03968 2.421144
2005-03-14 09:31:53 51°20.102 2°56.45 4.0294 2.762314 28.981574 2.252597
2005-03-14 09:32:53 51°20.264 2°56.626 4.0442 2.754212 28.865343 2.151469
2005-03-14 09:33:53 51°20.42 2°56.806 4.0374 2.767048 29.009634 2.08405
2005-03-14 09:34:54 51°20.575 2°56.995 4.0341 2.763261 28.974503 2.117759
2005-03-14 09:35:53 51°20.728 2°57.178 4.0166 2.761682 28.957058 2.050341
2005-03-14 09:36:54 51°20.885 2°57.364 4.0232 2.763892 28.991193 2.151469
2005-03-14 09:37:53 51°21.034 2°57.554 4.0494 2.742112 28.730386 2.050341
2005-03-14 09:38:53 51°21.185 2°57.752 4.0471 2.768206 29.018298 2.185178
2005-03-14 09:39:53 51°21.334 2°57.953 4.0276 2.768732 29.020455 2.353725
2005-03-14 09:40:53 51°21.483 2°58.161 4.0267 2.770416 29.057151 2.555982
2005-03-14 09:41:54 51°21.626 2°58.388 4.0062 2.771784 29.083955 3.027913
2005-03-14 09:42:53 51°21.771 2°58.608 3.9931 2.761998 28.994386 3.129042
2005-03-14 09:43:53 51°21.914 2°58.835 3.9846 2.784305 29.253237 3.095332
2005-03-14 09:44:53 51°22.057 2°59.058 3.9722 2.78662 29.287165 2.960494
2005-03-14 09:45:53 51°22.199 2°59.28 3.961 2.788304 29.313799 2.994204
2005-03-14 09:46:54 51°22.34 2°59.505 3.9578 2.785147 29.288334 2.994204
2005-03-14 09:47:54 51°22.481 2°59.724 3.9532 2.789672 29.344735 2.994204
2005-03-14 09:48:53 51°22.62 2°59.942 3.9557 2.793986 29.397131 3.027913
2005-03-14 09:49:53 51°22.761 3°0.166 3.9474 2.785989 29.312373 2.825657
2005-03-14 09:50:53 51°22.903 3°0.389 3.9457 2.786094 29.314387 2.65711
2005-03-14 09:51:53 51°23.046 3°0.613 3.9495 2.791356 29.371407 2.690819
2005-03-14 09:52:53 51°23.191 3°0.833 3.9662 2.784621 29.28779 2.758238
2005-03-14 09:53:53 51°23.335 3°1.053 3.9906 2.792829 29.369395 3.061623
2005-03-14 09:54:53 51°23.48 3°1.268 4.0102 2.790303 29.318709 3.263879
2005-03-14 09:55:53 51°23.623 3°1.481 4.0219 2.788198 29.276926 4.039195
2005-03-14 09:56:53 51°23.767 3°1.688 4.0221 2.796406 29.368724 5.084187
2005-03-14 09:57:54 51°23.914 3°1.898 4.021 2.80293 29.445828 5.758375
2005-03-14 09:58:53 51°24.059 3°2.101 4.0137 2.801983 29.434865 5.353862
2005-03-14 09:59:54 51°24.207 3°2.32 4.0139 2.797458 29.381696 4.275161
2005-03-14 10:00:53 51°24.352 3°2.535 4.0106 2.796195 29.371845 2.893076
2005-03-14 10:01:54 51°24.506 3°2.758 4.0124 2.790513 29.306085 2.252597
2005-03-14 10:02:54 51°24.654 3°2.982 4.0099 2.805666 29.48388 2.151469
2005-03-14 10:03:54 51°24.799 3°3.211 3.9796 2.811138 29.55445 2.185178
2005-03-14 10:04:53 51°24.929 3°3.449 3.9657 2.811664 29.585349 2.185178
2005-03-14 10:05:54 51°25.056 3°3.699 3.9353 2.808928 29.57844 2.825657
2005-03-14 10:06:54 51°25.18 3°3.955 3.9146 2.819872 29.72481 3.567264
2005-03-14 10:07:53 51°25.298 3°4.203 3.908 2.798196 29.485863 3.533554
2005-03-14 10:08:53 51°25.418 3°4.454 3.9113 2.81398 29.670023 3.668392
2005-03-14 10:09:53 51°25.536 3°4.706 3.9105 2.816716 29.705849 4.005486
2005-03-14 10:10:53 51°25.661 3°4.946 3.911 2.809981 29.627576 3.870648
2005-03-14 10:11:54 51°25.796 3°5.177 3.9112 2.82303 29.776025 3.836939
2005-03-14 10:12:53 51°25.927 3°5.403 3.919 2.806298 29.583176 3.702101
2005-03-14 10:13:54 51°26.062 3°5.633 3.9127 2.826713 29.814 3.735811
2005-03-14 10:14:53 51°26.192 3°5.86 3.9176 2.819873 29.733677 3.76952
2005-03-14 10:15:54 51°26.328 3°6.089 3.9337 2.828396 29.825489 3.466136
2005-03-14 10:16:53 51°26.46 3°6.314 3.9324 2.816926 29.688162 2.825657
2005-03-14 10:17:53 51°26.591 3°6.544 3.9396 2.815347 29.661786 2.218888
2005-03-14 10:18:53 51°26.724 3°6.776 3.9401 2.815979 29.669118 2.050341
2005-03-14 10:19:53 51°26.859 3°7.006 3.9358 2.827344 29.800329 1.982922
2005-03-14 10:20:53 51°26.993 3°7.237 3.9351 2.819136 29.709808 2.117759
2005-03-14 10:21:54 51°27.13 3°7.475 3.9342 2.83029 29.835376 2.08405
2005-03-14 10:22:54 51°27.265 3°7.703 3.9348 2.830816 29.842299 2.151469
2005-03-14 10:23:53 51°27.4 3°7.932 3.9429 2.835762 29.899788 2.08405
2005-03-14 10:24:54 51°27.538 3°8.167 3.9649 2.838078 29.918594 1.982922
2005-03-14 10:25:53 51°27.673 3°8.4 3.9705 2.841129 29.941899 2.016631
2005-03-14 10:26:53 51°27.811 3°8.635 3.9926 2.838603 29.895551 2.016631
2005-03-14 10:27:53 51°27.948 3°8.872 3.9824 2.848495 30.006384 2.117759
2005-03-14 10:28:54 51°28.07 3°9.057 3.9874 2.852073 30.040633 2.218888
2005-03-14 10:29:54 51°28.139 3°9.076 3.9998 2.835551 29.848807 2.117759
2005-03-14 10:30:53 51°28.142 3°9.076 4.0065 2.854073 30.054914 1.982922
2005-03-14 10:31:54 51°28.135 3°9.08 4.0196 2.856809 30.080183 1.949212
2005-03-14 10:32:54 51°28.126 3°9.084 4.0265 2.853967 30.034197 1.982922
2005-03-14 10:33:53 51°28.114 3°9.089 4.0254 2.848706 29.97071 1.848084
2005-03-14 10:34:53 51°28.101 3°9.092 4.0323 2.860703 30.109932 1.982922
2005-03-14 10:35:53 51°28.085 3°9.093 4.0373 2.859545 30.092428 1.881794
2005-03-14 10:36:54 51°28.069 3°9.091 4.0346 2.858282 30.071271 1.915503
2005-03-14 10:37:53 51°28.053 3°9.089 4.0385 2.856914 30.055398 1.982922
2005-03-14 10:38:53 51°28.036 3°9.085 4.0363 2.853125 30.011448 1.949212
2005-03-14 10:39:54 51°28.019 3°9.081 4.0385 2.857545 30.063536 1.949212
2005-03-14 10:40:54 51°28.001 3°9.075 4.0381 2.856809 30.052554 2.016631
2005-03-14 10:41:53 51°27.983 3°9.069 4.039 2.860808 30.098952 2.08405
2005-03-14 10:42:53 51°27.965 3°9.062 4.0392 2.861544 30.1075 2.050341
2005-03-14 10:43:54 51°27.944 3°9.06 4.0374 2.851021 29.987035 1.949212
2005-03-14 10:44:53 51°27.877 3°9.166 4.0528 2.864386 30.138032 1.881794
2005-03-14 10:45:54 51°27.703 3°9.119 4.0309 2.864175 30.112814 1.982922
2005-03-14 10:46:54 51°27.629 3°8.837 4.0213 2.860282 30.096912 1.982922
2005-03-14 10:47:53 51°27.691 3°8.561 4.0223 2.853441 30.032961 2.08405
2005-03-14 10:48:54 51°27.816 3°8.352 4.0318 2.860808 30.120108 2.050341
2005-03-14 10:49:53 51°27.915 3°8.292 4.0452 2.861439 30.103839 2.016631
2005-03-14 10:50:53 51°27.962 3°8.338 4.0628 2.868174 30.173851 1.949212
2005-03-14 10:51:54 51°28.001 3°8.394 4.0784 2.871016 30.192964 1.982922
2005-03-14 10:52:53 51°28.038 3°8.448 4.0946 2.880066 30.284079 1.915503
2005-03-14 10:53:53 51°28.071 3°8.516 4.1124 2.881434 30.284426 1.949212
2005-03-14 10:54:54 51°28.099 3°8.587 4.133 2.886696 30.326639 2.050341
2005-03-14 10:55:53 51°28.126 3°8.651 4.1528 2.889643 30.343625 2.117759
2005-03-14 10:56:53 51°28.151 3°8.711 4.1681 2.899431 30.439014 2.117759
2005-03-14 10:57:53 51°28.177 3°8.768 4.1834 2.901851 30.457221 2.117759
2005-03-14 10:58:53 51°28.203 3°8.825 4.1888 2.905219 30.486387 2.185178
2005-03-14 10:59:53 51°28.23 3°8.882 4.2009 2.907219 30.500521 2.117759
2005-03-14 11:00:54 51°28.257 3°8.938 4.2141 2.901746 30.421627 2.117759
2005-03-14 11:01:53 51°28.282 3°8.993 4.2263 2.911113 30.520172 2.185178
2005-03-14 11:02:53 51°28.309 3°9.049 4.2333 2.916375 30.569571 2.151469
2005-03-14 11:03:53 51°28.336 3°9.105 4.2426 2.919848 30.602359 2.185178
2005-03-14 11:04:53 51°28.362 3°9.163 4.2448 2.920795 30.608387 2.218888
2005-03-14 11:05:54 51°28.389 3°9.22 4.2475 2.921532 30.615265 2.185178
2005-03-14 11:06:54 51°28.416 3°9.277 4.2578 2.922479 30.620469 2.185178
2005-03-14 11:07:53 51°28.442 3°9.334 4.263 2.920795 30.594426 2.185178
2005-03-14 11:08:53 51°28.467 3°9.391 4.2792 2.926689 30.655177 2.252597
2005-03-14 11:09:53 51°28.493 3°9.45 4.2967 2.930268 30.681742 2.218888
2005-03-14 11:10:53 51°28.519 3°9.508 4.324 2.93532 30.721201 2.387435
2005-03-14 11:11:54 51°28.545 3°9.569 4.3523 2.943319 30.784776 2.555982
2005-03-14 11:12:54 51°28.571 3°9.629 4.3653 2.951844 30.860946 2.926785
2005-03-14 11:13:53 51°28.596 3°9.688 4.3679 2.956055 30.902116 3.095332
2005-03-14 11:14:53 51°28.62 3°9.747 4.3665 2.958475 30.930063 3.095332
2005-03-14 11:15:53 51°28.647 3°9.804 4.3616 2.958475 30.929236 3.23017
2005-03-14 11:16:54 51°28.673 3°9.864 4.3639 2.958791 30.934536 3.331298
2005-03-14 11:17:54 51°28.699 3°9.922 4.364 2.958265 30.926806 3.297589
2005-03-14 11:18:54 51°28.724 3°9.981 4.3614 2.958581 30.932106 3.398717
2005-03-14 11:19:53 51°28.749 3°10.039 4.3622 2.950897 30.845061 3.466136
2005-03-14 11:20:53 51°28.774 3°10.1 4.3637 2.957844 30.921946 3.466136
2005-03-14 11:21:53 51°28.792 3°10.169 4.3629 2.952686 30.862413 3.466136
2005-03-14 11:22:53 51°28.788 3°10.252 4.3625 2.953002 30.865232 3.567264
2005-03-14 11:23:54 51°28.766 3°10.338 4.3659 2.957002 30.915531 3.634683
2005-03-14 11:24:53 51°28.729 3°10.419 4.3611 2.955528 30.896867 3.668392
2005-03-14 11:25:53 51°28.688 3°10.473 4.366 2.953844 30.875776 3.668392
2005-03-14 11:26:54 51°28.644 3°10.506 4.3629 2.951634 30.84944 3.533554
2005-03-14 11:27:53 51°28.581 3°10.521 4.3674 2.95016 30.82749 3.365007
2005-03-14 11:28:54 51°28.516 3°10.443 4.3632 2.954791 30.884233 3.499845
2005-03-14 11:29:53 51°28.489 3°10.327 4.3596 2.953739 30.88034 3.702101
2005-03-14 11:30:53 51°28.474 3°10.212 4.3699 2.953634 30.875823 3.567264
2005-03-14 11:31:53 51°28.461 3°10.099 4.3648 2.955002 30.891618 3.331298
2005-03-14 11:32:53 51°28.444 3°9.988 4.3668 2.955739 30.899297 3.23017
2005-03-14 11:33:53 51°28.423 3°9.878 4.3666 2.955739 30.899297 3.129042
2005-03-14 11:34:54 51°28.406 3°9.768 4.3673 2.957002 30.913878 3.162751
2005-03-14 11:35:53 51°28.396 3°9.665 4.364 2.949423 30.825581 3.263879
2005-03-14 11:36:54 51°28.384 3°9.574 4.37 2.957739 30.923211 3.23017
2005-03-14 11:37:53 51°28.372 3°9.494 4.3703 2.958265 30.923499 3.162751
2005-03-14 11:38:53 51°28.36 3°9.418 4.3758 2.959528 30.937252 2.960494
2005-03-14 11:39:53 51°28.348 3°9.348 4.3784 2.958896 30.928309 2.791947
2005-03-14 11:40:53 51°28.337 3°9.282 4.3835 2.959844 30.935935 2.791947
2005-03-14 11:41:54 51°28.33 3°9.219 4.3791 2.961107 30.950514 2.690819
2005-03-14 11:42:54 51°28.324 3°9.154 4.3835 2.961423 30.949196 2.791947
2005-03-14 11:43:53 51°28.318 3°9.088 4.3862 2.959317 30.923249 2.758238
2005-03-14 11:44:53 51°28.314 3°9.019 4.3877 2.960791 30.941081 2.690819
2005-03-14 11:45:53 51°28.308 3°8.948 4.3894 2.963633 30.971397 2.65711
2005-03-14 11:46:54 51°28.3 3°8.876 4.3956 2.96437 30.979073 2.758238
2005-03-14 11:47:53 51°28.293 3°8.806 4.3881 2.964791 30.982276 2.589691
2005-03-14 11:48:53 51°28.291 3°8.739 4.3888 2.965001 30.985534 2.589691
2005-03-14 11:49:54 51°28.295 3°8.673 4.3852 2.964686 30.983545 2.589691
2005-03-14 11:50:54 51°28.301 3°8.609 4.3853 2.964791 30.985588 2.555982
2005-03-14 11:51:53 51°28.308 3°8.545 4.3887 2.965738 30.997351 2.6234
2005-03-14 11:52:53 51°28.316 3°8.482 4.388 2.966264 31.00094 2.589691
2005-03-14 11:53:54 51°28.323 3°8.419 4.3866 2.967001 31.010274 2.6234
2005-03-14 11:54:53 51°28.328 3°8.354 4.3907 2.961001 30.941856 2.690819
2005-03-14 11:55:54 51°28.334 3°8.286 4.3911 2.963317 30.963616 2.65711
2005-03-14 11:56:54 51°28.337 3°8.217 4.3903 2.964475 30.97946 2.65711
2005-03-14 11:57:54 51°28.341 3°8.149 4.3901 2.969317 31.032859 2.522272
2005-03-14 11:58:54 51°28.346 3°8.079 4.3938 2.968791 31.025126 2.522272
2005-03-14 11:59:54 51°28.351 3°8.011 4.3932 2.964264 30.972065 2.724529
2005-03-14 12:00:54 51°28.353 3°7.939 4.3979 2.969633 31.034845 2.65711
2005-03-14 12:01:53 51°28.352 3°7.868 4.4027 2.970369 31.036716 2.65711
2005-03-14 12:02:54 51°28.351 3°7.794 4.4015 2.971527 31.050079 2.522272
2005-03-14 12:03:53 51°28.349 3°7.721 4.4042 2.972369 31.05565 2.488563
2005-03-14 12:04:54 51°28.347 3°7.645 4.4055 2.972159 31.05405 2.421144
2005-03-14 12:05:54 51°28.346 3°7.57 4.4019 2.965738 30.979138 2.488563
2005-03-14 12:06:54 51°28.347 3°7.496 4.4057 2.97458 31.082819 2.522272
2005-03-14 12:07:54 51°28.352 3°7.412 4.408 2.973948 31.0747 2.488563
2005-03-14 12:08:53 51°28.353 3°7.316 4.4015 2.967738 31.003038 2.522272
2005-03-14 12:09:54 51°28.347 3°7.209 4.4033 2.957633 30.888134 2.65711
2005-03-14 12:10:53 51°28.346 3°7.107 4.3897 2.972369 31.062286 2.690819
2005-03-14 12:11:54 51°28.342 3°7.026 4.3755 2.968159 31.02281 2.589691
2005-03-14 12:12:54 51°28.335 3°6.963 4.3781 2.963423 30.978901 2.724529
2005-03-14 12:13:53 51°28.325 3°6.912 4.3789 2.95816 30.916498 2.65711
2005-03-14 12:14:54 51°28.315 3°6.865 4.3689 2.964054 30.991163 2.859366
2005-03-14 12:15:54 51°28.318 3°6.747 4.3539 2.963423 30.987184 2.758238
2005-03-14 12:16:53 51°28.263 3°6.531 4.355 2.959212 30.954295 2.522272
2005-03-14 12:17:54 51°28.119 3°6.309 4.3417 2.957844 30.942629 2.6234
2005-03-14 12:18:53 51°27.94 3°6.079 4.3266 2.956265 30.925218 2.859366
2005-03-14 12:19:53 51°27.748 3°5.826 4.3126 2.956581 30.940456 3.129042
2005-03-14 12:20:53 51°27.554 3°5.572 4.2898 2.948582 30.873651 2.994204
2005-03-14 12:21:54 51°27.361 3°5.31 4.2554 2.936899 30.767469 2.724529
2005-03-14 12:22:54 51°27.174 3°5.048 4.3245 2.933952 30.745755 2.791947
2005-03-14 12:23:54 51°26.989 3°4.79 4.3145 2.953318 30.906061 5.050477
2005-03-14 12:24:54 51°26.801 3°4.533 4.2144 2.937846 30.7644 4.106614
2005-03-14 12:25:54 51°26.616 3°4.276 4.1743 2.91606 30.58563 3.971777
2005-03-14 12:26:53 51°26.431 3°4.024 4.1235 2.903009 30.481291 3.499845
2005-03-14 12:27:53 51°26.246 3°3.771 4.0791 2.89259 30.409709 3.870648
2005-03-14 12:28:53 51°26.063 3°3.517 4.0406 2.885224 30.357009 4.511127
2005-03-14 12:29:54 51°25.878 3°3.264 4.011 2.874068 30.273314 4.207742
2005-03-14 12:30:54 51°25.695 3°3.009 3.9954 2.870911 30.248899 3.76952
2005-03-14 12:31:53 51°25.512 3°2.758 3.9762 2.868385 30.233448 3.567264
2005-03-14 12:32:53 51°25.329 3°2.507 3.9761 2.86807 30.238778 3.904358
2005-03-14 12:33:53 51°25.149 3°2.257 3.9851 2.869333 30.252646 4.241452
2005-03-14 12:34:55 51°24.965 3°2.003 3.9678 2.867123 30.228582 3.938067
2005-03-14 12:35:54 51°24.791 3°1.762 3.9648 2.861861 30.17475 3.634683
2005-03-14 12:36:54 51°24.616 3°1.518 3.9663 2.856494 30.121317 3.19646
2005-03-14 12:37:53 51°24.443 3°1.277 3.9409 2.850601 30.060935 2.724529
2005-03-14 12:38:54 51°24.266 3°1.034 3.9368 2.846391 30.026631 2.690819
2005-03-14 12:39:54 51°24.088 3°0.792 3.9347 2.843129 29.992752 2.488563
2005-03-14 12:40:53 51°23.918 3°0.554 3.939 2.840498 29.957279 2.353725
2005-03-14 12:41:53 51°23.743 3°0.309 3.9385 2.836289 29.906715 2.218888
2005-03-14 12:42:53 51°23.569 3°0.066 3.9358 2.833132 29.874065 2.252597
2005-03-14 12:43:54 51°23.394 2°59.82 3.9402 2.827239 29.801529 2.016631
2005-03-14 12:44:53 51°23.222 2°59.582 3.9435 2.824924 29.777857 1.949212
2005-03-14 12:45:53 51°23.049 2°59.342 3.9621 2.822924 29.750593 2.050341
2005-03-14 12:46:54 51°22.875 2°59.095 3.9765 2.821135 29.711292 2.016631
2005-03-14 12:47:53 51°22.704 2°58.857 3.9674 2.817978 29.669022 2.151469
2005-03-14 12:48:54 51°22.529 2°58.608 3.9779 2.815768 29.640971 2.185178
2005-03-14 12:49:54 51°22.354 2°58.362 3.9876 2.813769 29.604148 2.320016
2005-03-14 12:50:55 51°22.176 2°58.11 4.0005 2.812822 29.593967 2.454853
2005-03-14 12:51:53 51°22.002 2°57.868 4.0165 2.811243 29.561265 2.353725
2005-03-14 12:52:54 51°21.824 2°57.611 4.0194 2.809664 29.530193 2.218888
2005-03-14 12:53:54 51°21.649 2°57.36 4.0297 2.808507 29.513594 2.218888
2005-03-14 12:54:55 51°21.468 2°57.104 4.0274 2.80756 29.493059 2.08405
2005-03-14 12:55:55 51°21.292 2°56.852 4.0305 2.806087 29.476801 2.117759
2005-03-14 12:56:54 51°21.117 2°56.604 4.0261 2.80556 29.465933 2.117759
2005-03-14 12:57:54 51°20.941 2°56.353 4.0304 2.804824 29.463776 2.185178
2005-03-14 12:58:53 51°20.765 2°56.106 4.0144 2.80314 29.445082 2.252597
2005-03-14 12:59:54 51°20.587 2°55.854 4.0279 2.801667 29.434393 2.252597
2005-03-14 13:00:54 51°20.409 2°55.601 4.0326 2.801562 29.421245 2.286306
2005-03-14 13:01:54 51°20.231 2°55.356 4.0352 2.802088 29.424154 2.353725
2005-03-14 13:02:55 51°20.05 2°55.102 4.0454 2.802719 29.42828 2.320016
2005-03-14 13:03:54 51°19.874 2°54.86 4.0264 2.802404 29.434169 2.522272
2005-03-14 13:04:54 51°19.699 2°54.621 4.0317 2.802719 29.434641 2.185178
2005-03-14 13:05:53 51°19.526 2°54.384 3.9814 2.804087 29.471178 2.320016
2005-03-14 13:06:54 51°19.35 2°54.143 3.9829 2.803877 29.496657 2.353725
2005-03-14 13:07:54 51°19.177 2°53.907 3.9641 2.801141 29.470525 2.6234
2005-03-14 13:08:54 51°19.003 2°53.671 3.9764 2.796722 29.434432 2.724529
2005-03-14 13:09:53 51°18.833 2°53.441 3.9797 2.796617 29.415682 2.555982
2005-03-14 13:10:54 51°18.661 2°53.203 3.9894 2.794512 29.390496 2.724529
2005-03-14 13:11:53 51°18.491 2°52.972 4.0091 2.791881 29.344919 2.825657
2005-03-14 13:12:54 51°18.321 2°52.735 4.0027 2.790408 29.327066 2.926785
2005-03-14 13:13:54 51°18.144 2°52.531 4.0185 2.788093 29.289167 2.893076
2005-03-14 13:14:54 51°17.924 2°52.468 4.0508 2.785147 29.235303 2.859366
2005-03-14 13:15:54 51°17.7 2°52.462 4.0706 2.781569 29.177376 3.095332
2005-03-14 13:16:54 51°17.475 2°52.466 4.0717 2.780096 29.143825 3.263879
2005-03-14 13:17:54 51°17.247 2°52.469 4.0755 2.779043 29.130101 3.365007
2005-03-14 13:18:54 51°17.024 2°52.471 4.0835 2.777465 29.107948 3.432426
2005-03-14 13:19:53 51°16.802 2°52.477 4.0443 2.776623 29.106084 3.499845
2005-03-14 13:20:54 51°16.575 2°52.53 4.0635 2.774835 29.098781 3.398717
2005-03-14 13:21:53 51°16.36 2°52.63 4.0599 2.779254 29.135676 3.263879
2005-03-14 13:22:55 51°16.138 2°52.743 4.0142 2.782306 29.182735 3.23017
2005-03-14 13:23:53 51°15.932 2°52.86 3.9914 2.787357 29.27985 2.960494
2005-03-14 13:24:54 51°15.714 2°52.982 3.9656 2.791987 29.361231 2.724529
2005-03-14 13:25:54 51°15.506 2°53.109 3.9952 2.787567 29.313201 2.522272
2005-03-14 13:26:54 51°15.305 2°53.253 3.9954 2.776203 29.161048 2.454853
2005-03-14 13:27:53 51°15.104 2°53.398 3.9978 2.768732 29.071473 2.454853
2005-03-14 13:28:53 51°14.901 2°53.552 4.0149 2.765365 29.038032 2.522272
2005-03-14 13:29:53 51°14.709 2°53.703 3.9884 2.762524 28.971476 2.926785
2005-03-14 13:30:54 51°14.572 2°53.832 4.034 2.766628 29.062071 2.421144
2005-03-14 13:31:54 51°14.505 2°53.959 4.0631 2.762208 28.957658 2.522272
2005-03-14 13:32:53 51°14.495 2°54.045 4.0952 2.755579 28.8523 2.320016
2005-03-14 13:33:54 51°14.476 2°54.123 4.1086 2.75358 28.813701 2.218888
2005-03-14 13:34:54 51°14.447 2°54.145 4.1219 2.749687 28.760313 2.286306
2005-03-14 13:35:54 51°14.446 2°54.123 4.1257 2.747372 28.72591 2.218888
2005-03-14 13:36:55 51°14.504 2°54.108 4.1232 2.747477 28.714741 2.252597
2005-03-14 13:37:53 51°14.571 2°54.216 4.1104 2.749792 28.747577 2.320016
2005-03-14 13:38:54 51°14.591 2°54.287 4.1023 2.750108 28.758959 2.252597
2005-03-14 13:39:53 51°14.606 2°54.346 4.1022 2.750529 28.771559 2.286306
2005-03-14 13:40:53 51°14.619 2°54.406 4.0961 2.751581 28.784456 2.286306
2005-03-14 13:41:54 51°14.631 2°54.467 4.0794 2.753896 28.817339 2.320016
2005-03-14 13:42:53 51°14.643 2°54.526 4.0662 2.753159 28.822841 2.320016
2005-03-14 13:43:54 51°14.648 2°54.591 4.0472 2.755264 28.87125 2.286306
2005-03-14 13:44:53 51°14.552 2°54.728 4.0797 2.754528 28.86353 2.353725
2005-03-14 13:45:55 51°14.412 2°54.939 4.0401 2.754738 28.839481 2.387435
2005-03-14 13:46:53 51°14.292 2°55.167 4.0174 2.757263 28.904468 2.488563
2005-03-14 13:47:54 51°14.186 2°55.349 4.1913 2.704867 28.262933 3.870648
2005-03-14 13:48:53 51°14.065 2°55.457 4.3772 2.519951 26.059255 -0.17448
2005-03-14 13:49:53 51°13.951 2°55.546 4.7077 2.522895 26.093391 -0.882377
2005-03-14 13:50:53 51°13.847 2°55.631 4.7649 2.521633 26.068554 -0.882377
2005-03-14 13:51:54 51°13.764 2°55.717 4.8168 2.521318 26.057274 -0.882377
2005-03-14 13:52:55 51°13.703 2°55.822 4.9083 2.521423 26.047278 -0.848668
2005-03-14 13:53:54 51°13.654 2°55.932 5.0268 2.521317 26.027225 -0.882377
2005-03-14 13:54:54 51°13.615 2°56.034 5.2604 2.521107 26.01368 -0.882377
2005-03-14 13:55:54 51°13.598 2°56.091 5.384 2.521107 26.010891 -0.882377